Aérodrome :
LOGIN :

S'inscrire | Disclaimer

   EN    FR    IT 

 










Légende :    VFR   VFR Marginal   IFR   IFR Intensif   IFR Très Intensif
Visi : 
Plafond : 
>= 8 km
>= 3000ft
5 à 8 km
1000 à 3000 ft
1500m à 5 km
500 à 1000 ft
800 à 1500m
200 à 500 ft
< 800m
< 200 ft
Symboles :   Orages  Brouillard  Fortes neiges  Fortes précipitations  Vent > 20 kt
SIGMETs :   Divers  Orages  Givrage  Turbulence  Onde Orograph.  Cendres Volcan.







- Altitude de l'aérodrome : 17 ft
- Code IATA : GRQ


EHGG - Groningen Eelde

DERNIER METAR :
  • 221555Z AUTO 18013KT 150V220 9999 NCD 11/08 Q1001 NOSIG

METARs EXPIRÉS :
  • 221525Z AUTO 18013KT 150V220 9999 NCD 11/08 Q1001 NOSIG
  • 221455Z AUTO 19012KT 160V220 9999 NCD 12/08 Q1001 NOSIG
  • 221425Z AUTO 20015KT 160V240 9999 NCD 12/09 Q1002 NOSIG
  • 221355Z AUTO 20016KT 170V230 9999 NSC 12/09 Q1002 NOSIG
  • 221325Z AUTO 21016KT 9999 NSC 12/09 Q1002 NOSIG

TAF COR TAF EHGG
Valide du 22 à 12h jusqu'au 23 à 18h UTC


221120Z 2212/2318 21017KT 9999 BKN020
BECMG 2305/2307 20022G32KT
PROB40
TEMPO 2310/2315 6000 RA SHRA SCT020CB BKN030
BECMG 2314/2317 22012KT
Pas de NOTAMs connus pour ce terrain.



MET'MAP, la Météo Aéronautique d'un coup d'oeil ! - Copyright ORBIFLY Décembre 2007 - Disclaimer

ORBIFLY MET'MAP TEAM :

Programmation & Développement : Alexandra Zaïnal
Conception & Développement : Baudouin d'Aumeries
Co-Programmation & Développement : Marc-Olivier Méhu
Soutien technique & logistique : Manuel Goepfert

Contact : metmap@orbifly.com




SOURCES & CREDITS :

   NOAA